Terminal Aerodrome Forecast
Issued by NWS

Home | Current Version | Previous Version | Text Only | Print | Product List | Glossary On
Versions: 1 2 3 4 5 6 7 8 9 10 11 12 13 14 15 16 17
787
FTUS46 KLOX 260538
TAFBUR
TAF
KBUR 260538Z 2606/2706 VRB03KT P6SM SCT150
     FM262000 18008KT P6SM BKN050 BKN150
     FM270300 VRB03KT P6SM OVC100=

USA.gov is the U.S. government's official web portal to all federal, state and local government web resources and services.